sensor_id;sensor_type;location;lat;lon;timestamp;P1;durP1;ratioP1;P2;durP2;ratioP2
23155;SDS011;11746;50.876;4.246;2023-05-07T00:00:10;14.50;;;4.28;;
23155;SDS011;11746;50.876;4.246;2023-05-07T00:02:36;8.02;;;3.65;;
23155;SDS011;11746;50.876;4.246;2023-05-07T00:05:07;9.55;;;3.75;;
23155;SDS011;11746;50.876;4.246;2023-05-07T00:07:35;10.55;;;3.30;;
23155;SDS011;11746;50.876;4.246;2023-05-07T00:10:02;6.75;;;3.05;;
23155;SDS011;11746;50.876;4.246;2023-05-07T00:12:29;8.70;;;3.60;;
23155;SDS011;11746;50.876;4.246;2023-05-07T00:14:59;7.82;;;3.38;;
23155;SDS011;11746;50.876;4.246;2023-05-07T00:17:26;9.30;;;3.55;;
23155;SDS011;11746;50.876;4.246;2023-05-07T00:19:52;10.38;;;3.65;;
23155;SDS011;11746;50.876;4.246;2023-05-07T00:22:18;11.38;;;3.78;;
23155;SDS011;11746;50.876;4.246;2023-05-07T00:24:44;7.13;;;3.83;;
23155;SDS011;11746;50.876;4.246;2023-05-07T00:27:10;8.63;;;3.40;;
23155;SDS011;11746;50.876;4.246;2023-05-07T00:29:36;7.53;;;3.20;;
23155;SDS011;11746;50.876;4.246;2023-05-07T00:32:02;10.70;;;3.10;;
23155;SDS011;11746;50.876;4.246;2023-05-07T00:34:28;8.70;;;3.15;;
23155;SDS011;11746;50.876;4.246;2023-05-07T00:36:53;10.18;;;3.38;;
23155;SDS011;11746;50.876;4.246;2023-05-07T00:39:19;9.48;;;2.90;;
23155;SDS011;11746;50.876;4.246;2023-05-07T00:41:45;7.95;;;3.20;;
23155;SDS011;11746;50.876;4.246;2023-05-07T00:44:12;8.95;;;3.00;;
23155;SDS011;11746;50.876;4.246;2023-05-07T00:46:39;7.35;;;3.10;;
23155;SDS011;11746;50.876;4.246;2023-05-07T00:49:05;10.48;;;3.10;;
23155;SDS011;11746;50.876;4.246;2023-05-07T00:51:32;7.05;;;3.15;;
23155;SDS011;11746;50.876;4.246;2023-05-07T00:53:59;5.95;;;2.80;;
23155;SDS011;11746;50.876;4.246;2023-05-07T00:56:27;6.43;;;2.97;;
23155;SDS011;11746;50.876;4.246;2023-05-07T00:58:53;9.32;;;3.35;;
23155;SDS011;11746;50.876;4.246;2023-05-07T01:01:19;9.02;;;3.30;;
23155;SDS011;11746;50.876;4.246;2023-05-07T01:03:46;5.63;;;3.45;;
23155;SDS011;11746;50.876;4.246;2023-05-07T01:06:12;6.57;;;3.25;;
23155;SDS011;11746;50.876;4.246;2023-05-07T01:08:41;7.03;;;3.28;;
23155;SDS011;11746;50.876;4.246;2023-05-07T01:11:08;9.93;;;3.30;;
23155;SDS011;11746;50.876;4.246;2023-05-07T01:13:35;6.97;;;3.47;;
23155;SDS011;11746;50.876;4.246;2023-05-07T01:16:02;7.88;;;3.60;;
23155;SDS011;11746;50.876;4.246;2023-05-07T01:18:28;8.02;;;3.17;;
23155;SDS011;11746;50.876;4.246;2023-05-07T01:20:58;6.38;;;3.67;;
23155;SDS011;11746;50.876;4.246;2023-05-07T01:23:25;10.48;;;3.40;;
23155;SDS011;11746;50.876;4.246;2023-05-07T01:25:52;7.75;;;3.70;;
23155;SDS011;11746;50.876;4.246;2023-05-07T01:28:19;8.10;;;3.58;;
23155;SDS011;11746;50.876;4.246;2023-05-07T01:30:53;10.40;;;3.70;;
23155;SDS011;11746;50.876;4.246;2023-05-07T01:33:22;6.80;;;3.20;;
23155;SDS011;11746;50.876;4.246;2023-05-07T01:35:50;7.68;;;3.60;;
23155;SDS011;11746;50.876;4.246;2023-05-07T01:38:18;7.22;;;3.17;;
23155;SDS011;11746;50.876;4.246;2023-05-07T01:40:46;9.13;;;3.25;;
23155;SDS011;11746;50.876;4.246;2023-05-07T01:43:12;5.90;;;3.10;;
23155;SDS011;11746;50.876;4.246;2023-05-07T01:45:38;8.02;;;2.95;;
23155;SDS011;11746;50.876;4.246;2023-05-07T01:48:06;5.85;;;3.25;;
23155;SDS011;11746;50.876;4.246;2023-05-07T01:50:33;6.15;;;2.78;;
23155;SDS011;11746;50.876;4.246;2023-05-07T01:53:01;8.45;;;3.13;;
23155;SDS011;11746;50.876;4.246;2023-05-07T01:55:27;8.60;;;3.42;;
23155;SDS011;11746;50.876;4.246;2023-05-07T01:57:53;5.65;;;2.72;;
23155;SDS011;11746;50.876;4.246;2023-05-07T02:00:19;8.13;;;3.40;;
23155;SDS011;11746;50.876;4.246;2023-05-07T02:02:45;7.18;;;3.30;;
23155;SDS011;11746;50.876;4.246;2023-05-07T02:05:11;8.50;;;3.58;;
23155;SDS011;11746;50.876;4.246;2023-05-07T02:07:37;5.85;;;3.03;;
23155;SDS011;11746;50.876;4.246;2023-05-07T02:10:03;6.90;;;3.40;;
23155;SDS011;11746;50.876;4.246;2023-05-07T02:12:30;7.93;;;3.65;;
23155;SDS011;11746;50.876;4.246;2023-05-07T02:14:55;8.10;;;2.80;;
23155;SDS011;11746;50.876;4.246;2023-05-07T02:17:21;4.75;;;2.50;;
23155;SDS011;11746;50.876;4.246;2023-05-07T02:19:47;8.02;;;2.88;;
23155;SDS011;11746;50.876;4.246;2023-05-07T02:22:13;7.55;;;3.03;;
23155;SDS011;11746;50.876;4.246;2023-05-07T02:24:39;7.22;;;3.00;;
23155;SDS011;11746;50.876;4.246;2023-05-07T02:27:05;4.78;;;2.50;;
23155;SDS011;11746;50.876;4.246;2023-05-07T02:29:31;7.20;;;2.88;;
23155;SDS011;11746;50.876;4.246;2023-05-07T02:31:57;7.75;;;3.00;;
23155;SDS011;11746;50.876;4.246;2023-05-07T02:34:23;7.00;;;2.92;;
23155;SDS011;11746;50.876;4.246;2023-05-07T02:36:48;7.72;;;2.70;;
23155;SDS011;11746;50.876;4.246;2023-05-07T02:39:16;7.45;;;2.67;;
23155;SDS011;11746;50.876;4.246;2023-05-07T02:41:42;7.53;;;2.40;;
23155;SDS011;11746;50.876;4.246;2023-05-07T02:44:08;8.77;;;2.97;;
23155;SDS011;11746;50.876;4.246;2023-05-07T02:46:34;7.50;;;2.60;;
23155;SDS011;11746;50.876;4.246;2023-05-07T02:49:00;5.78;;;2.53;;
23155;SDS011;11746;50.876;4.246;2023-05-07T02:51:26;6.93;;;2.60;;
23155;SDS011;11746;50.876;4.246;2023-05-07T02:53:52;17.77;;;3.00;;
23155;SDS011;11746;50.876;4.246;2023-05-07T02:56:18;14.15;;;3.15;;
23155;SDS011;11746;50.876;4.246;2023-05-07T02:58:44;13.60;;;2.70;;
23155;SDS011;11746;50.876;4.246;2023-05-07T03:01:10;6.32;;;2.65;;
23155;SDS011;11746;50.876;4.246;2023-05-07T03:03:36;8.07;;;3.00;;
23155;SDS011;11746;50.876;4.246;2023-05-07T03:06:04;7.15;;;2.95;;
23155;SDS011;11746;50.876;4.246;2023-05-07T03:08:30;5.88;;;2.53;;
23155;SDS011;11746;50.876;4.246;2023-05-07T03:10:56;6.38;;;2.88;;
23155;SDS011;11746;50.876;4.246;2023-05-07T03:13:22;5.18;;;2.53;;
23155;SDS011;11746;50.876;4.246;2023-05-07T03:15:48;6.03;;;3.00;;
23155;SDS011;11746;50.876;4.246;2023-05-07T03:18:14;8.35;;;3.10;;
23155;SDS011;11746;50.876;4.246;2023-05-07T03:20:40;7.93;;;2.78;;
23155;SDS011;11746;50.876;4.246;2023-05-07T03:23:06;6.15;;;2.70;;
23155;SDS011;11746;50.876;4.246;2023-05-07T03:25:32;6.60;;;2.67;;
23155;SDS011;11746;50.876;4.246;2023-05-07T03:27:58;6.72;;;2.92;;
23155;SDS011;11746;50.876;4.246;2023-05-07T03:30:24;8.07;;;3.08;;
23155;SDS011;11746;50.876;4.246;2023-05-07T03:32:50;8.70;;;3.28;;
23155;SDS011;11746;50.876;4.246;2023-05-07T03:35:16;9.70;;;3.50;;
23155;SDS011;11746;50.876;4.246;2023-05-07T03:37:42;9.45;;;2.85;;
23155;SDS011;11746;50.876;4.246;2023-05-07T03:40:08;6.13;;;3.08;;
23155;SDS011;11746;50.876;4.246;2023-05-07T03:42:35;9.23;;;3.20;;
23155;SDS011;11746;50.876;4.246;2023-05-07T03:45:01;10.52;;;4.00;;
23155;SDS011;11746;50.876;4.246;2023-05-07T03:47:27;9.07;;;3.53;;
23155;SDS011;11746;50.876;4.246;2023-05-07T03:49:53;7.70;;;3.97;;
23155;SDS011;11746;50.876;4.246;2023-05-07T03:52:20;7.00;;;3.30;;
23155;SDS011;11746;50.876;4.246;2023-05-07T03:54:49;7.18;;;3.60;;
23155;SDS011;11746;50.876;4.246;2023-05-07T03:57:15;8.65;;;3.60;;
23155;SDS011;11746;50.876;4.246;2023-05-07T03:59:41;9.52;;;3.78;;
23155;SDS011;11746;50.876;4.246;2023-05-07T04:02:07;10.75;;;3.97;;
23155;SDS011;11746;50.876;4.246;2023-05-07T04:04:33;7.82;;;3.55;;
23155;SDS011;11746;50.876;4.246;2023-05-07T04:06:59;6.28;;;3.00;;
23155;SDS011;11746;50.876;4.246;2023-05-07T04:09:25;18.25;;;3.97;;
23155;SDS011;11746;50.876;4.246;2023-05-07T04:11:51;15.07;;;3.50;;
23155;SDS011;11746;50.876;4.246;2023-05-07T04:14:17;23.42;;;3.63;;
23155;SDS011;11746;50.876;4.246;2023-05-07T04:16:43;16.10;;;3.40;;
23155;SDS011;11746;50.876;4.246;2023-05-07T04:19:09;14.95;;;3.40;;
23155;SDS011;11746;50.876;4.246;2023-05-07T04:21:35;7.18;;;3.25;;
23155;SDS011;11746;50.876;4.246;2023-05-07T04:24:02;8.10;;;3.53;;
23155;SDS011;11746;50.876;4.246;2023-05-07T04:26:28;7.30;;;3.15;;
23155;SDS011;11746;50.876;4.246;2023-05-07T04:28:55;7.65;;;3.22;;
23155;SDS011;11746;50.876;4.246;2023-05-07T04:31:22;9.85;;;3.35;;
23155;SDS011;11746;50.876;4.246;2023-05-07T04:33:48;6.90;;;3.05;;
23155;SDS011;11746;50.876;4.246;2023-05-07T04:36:17;6.90;;;3.33;;
23155;SDS011;11746;50.876;4.246;2023-05-07T04:38:46;7.70;;;3.33;;
23155;SDS011;11746;50.876;4.246;2023-05-07T04:41:12;7.55;;;2.92;;
23155;SDS011;11746;50.876;4.246;2023-05-07T04:43:39;8.75;;;3.15;;
23155;SDS011;11746;50.876;4.246;2023-05-07T04:46:05;8.60;;;3.20;;
23155;SDS011;11746;50.876;4.246;2023-05-07T04:48:31;8.52;;;3.35;;
23155;SDS011;11746;50.876;4.246;2023-05-07T04:50:57;11.02;;;3.50;;
23155;SDS011;11746;50.876;4.246;2023-05-07T04:53:23;13.77;;;3.22;;
23155;SDS011;11746;50.876;4.246;2023-05-07T04:55:49;14.95;;;3.28;;
23155;SDS011;11746;50.876;4.246;2023-05-07T04:58:24;23.08;;;4.60;;
23155;SDS011;11746;50.876;4.246;2023-05-07T05:00:50;24.45;;;3.85;;
23155;SDS011;11746;50.876;4.246;2023-05-07T05:03:16;7.72;;;2.55;;
23155;SDS011;11746;50.876;4.246;2023-05-07T05:05:43;8.90;;;2.40;;
23155;SDS011;11746;50.876;4.246;2023-05-07T05:08:09;6.90;;;2.75;;
23155;SDS011;11746;50.876;4.246;2023-05-07T05:10:35;7.35;;;3.05;;
23155;SDS011;11746;50.876;4.246;2023-05-07T05:13:01;8.07;;;2.97;;
23155;SDS011;11746;50.876;4.246;2023-05-07T05:15:26;7.45;;;2.55;;
23155;SDS011;11746;50.876;4.246;2023-05-07T05:17:52;11.70;;;3.63;;
23155;SDS011;11746;50.876;4.246;2023-05-07T05:20:18;11.93;;;3.28;;
23155;SDS011;11746;50.876;4.246;2023-05-07T05:22:44;46.03;;;5.03;;
23155;SDS011;11746;50.876;4.246;2023-05-07T05:25:10;21.20;;;3.83;;
23155;SDS011;11746;50.876;4.246;2023-05-07T05:27:36;12.05;;;3.22;;
23155;SDS011;11746;50.876;4.246;2023-05-07T05:30:02;9.60;;;2.88;;
23155;SDS011;11746;50.876;4.246;2023-05-07T05:32:29;15.43;;;3.38;;
23155;SDS011;11746;50.876;4.246;2023-05-07T05:34:55;44.47;;;4.00;;
23155;SDS011;11746;50.876;4.246;2023-05-07T05:37:21;8.25;;;2.40;;
23155;SDS011;11746;50.876;4.246;2023-05-07T05:39:47;8.40;;;2.60;;
23155;SDS011;11746;50.876;4.246;2023-05-07T05:42:12;9.45;;;2.65;;
23155;SDS011;11746;50.876;4.246;2023-05-07T05:44:38;6.95;;;2.50;;
23155;SDS011;11746;50.876;4.246;2023-05-07T05:47:04;12.38;;;3.00;;
23155;SDS011;11746;50.876;4.246;2023-05-07T05:49:30;14.50;;;3.45;;
23155;SDS011;11746;50.876;4.246;2023-05-07T05:51:56;10.07;;;3.58;;
23155;SDS011;11746;50.876;4.246;2023-05-07T05:54:22;8.10;;;3.50;;
23155;SDS011;11746;50.876;4.246;2023-05-07T05:56:48;12.25;;;3.80;;
23155;SDS011;11746;50.876;4.246;2023-05-07T05:59:14;9.20;;;4.22;;
23155;SDS011;11746;50.876;4.246;2023-05-07T06:01:40;7.03;;;3.72;;
23155;SDS011;11746;50.876;4.246;2023-05-07T06:04:06;9.52;;;3.85;;
23155;SDS011;11746;50.876;4.246;2023-05-07T06:06:32;11.45;;;4.22;;
23155;SDS011;11746;50.876;4.246;2023-05-07T06:08:58;19.25;;;4.78;;
23155;SDS011;11746;50.876;4.246;2023-05-07T06:11:23;10.18;;;4.35;;
23155;SDS011;11746;50.876;4.246;2023-05-07T06:13:50;12.90;;;4.47;;
23155;SDS011;11746;50.876;4.246;2023-05-07T06:16:16;10.25;;;4.80;;
23155;SDS011;11746;50.876;4.246;2023-05-07T06:18:42;12.38;;;5.35;;
23155;SDS011;11746;50.876;4.246;2023-05-07T06:21:09;13.40;;;4.68;;
23155;SDS011;11746;50.876;4.246;2023-05-07T06:23:35;12.27;;;5.65;;
23155;SDS011;11746;50.876;4.246;2023-05-07T06:26:01;13.82;;;5.25;;
23155;SDS011;11746;50.876;4.246;2023-05-07T06:28:27;16.27;;;5.95;;
23155;SDS011;11746;50.876;4.246;2023-05-07T06:30:53;17.13;;;5.60;;
23155;SDS011;11746;50.876;4.246;2023-05-07T06:33:18;12.20;;;5.97;;
23155;SDS011;11746;50.876;4.246;2023-05-07T06:35:44;12.95;;;6.07;;
23155;SDS011;11746;50.876;4.246;2023-05-07T06:38:10;8.68;;;5.20;;
23155;SDS011;11746;50.876;4.246;2023-05-07T06:40:37;13.68;;;6.22;;
23155;SDS011;11746;50.876;4.246;2023-05-07T06:43:03;10.18;;;5.55;;
23155;SDS011;11746;50.876;4.246;2023-05-07T06:45:29;12.57;;;6.10;;
23155;SDS011;11746;50.876;4.246;2023-05-07T06:47:55;11.65;;;5.50;;
23155;SDS011;11746;50.876;4.246;2023-05-07T06:50:21;12.05;;;5.50;;
23155;SDS011;11746;50.876;4.246;2023-05-07T06:52:46;12.02;;;5.50;;
23155;SDS011;11746;50.876;4.246;2023-05-07T06:55:12;10.35;;;6.45;;
23155;SDS011;11746;50.876;4.246;2023-05-07T06:57:38;13.93;;;5.65;;
23155;SDS011;11746;50.876;4.246;2023-05-07T07:00:05;12.98;;;6.38;;
23155;SDS011;11746;50.876;4.246;2023-05-07T07:02:34;11.40;;;6.18;;
23155;SDS011;11746;50.876;4.246;2023-05-07T07:05:01;13.55;;;6.43;;
23155;SDS011;11746;50.876;4.246;2023-05-07T07:07:27;10.65;;;5.43;;
23155;SDS011;11746;50.876;4.246;2023-05-07T07:09:53;13.85;;;5.70;;
23155;SDS011;11746;50.876;4.246;2023-05-07T07:12:19;12.73;;;5.75;;
23155;SDS011;11746;50.876;4.246;2023-05-07T07:14:45;11.63;;;5.80;;
23155;SDS011;11746;50.876;4.246;2023-05-07T07:17:11;9.80;;;5.55;;
23155;SDS011;11746;50.876;4.246;2023-05-07T07:19:36;11.38;;;5.13;;
23155;SDS011;11746;50.876;4.246;2023-05-07T07:22:04;10.07;;;5.70;;
23155;SDS011;11746;50.876;4.246;2023-05-07T07:24:29;12.75;;;5.10;;
23155;SDS011;11746;50.876;4.246;2023-05-07T07:26:55;10.85;;;5.30;;
23155;SDS011;11746;50.876;4.246;2023-05-07T07:29:21;9.30;;;4.60;;
23155;SDS011;11746;50.876;4.246;2023-05-07T07:31:48;10.35;;;4.57;;
23155;SDS011;11746;50.876;4.246;2023-05-07T07:34:17;8.75;;;4.43;;
23155;SDS011;11746;50.876;4.246;2023-05-07T07:36:42;9.45;;;4.72;;
23155;SDS011;11746;50.876;4.246;2023-05-07T07:39:08;10.70;;;4.25;;
23155;SDS011;11746;50.876;4.246;2023-05-07T07:41:34;9.68;;;4.43;;
23155;SDS011;11746;50.876;4.246;2023-05-07T07:44:00;6.45;;;4.10;;
23155;SDS011;11746;50.876;4.246;2023-05-07T07:46:28;12.88;;;4.90;;
23155;SDS011;11746;50.876;4.246;2023-05-07T07:48:54;9.38;;;4.28;;
23155;SDS011;11746;50.876;4.246;2023-05-07T07:51:20;8.77;;;4.68;;
23155;SDS011;11746;50.876;4.246;2023-05-07T07:53:46;8.43;;;4.53;;
23155;SDS011;11746;50.876;4.246;2023-05-07T07:56:12;9.40;;;3.75;;
23155;SDS011;11746;50.876;4.246;2023-05-07T07:58:38;7.65;;;3.58;;
23155;SDS011;11746;50.876;4.246;2023-05-07T08:01:04;7.05;;;3.80;;
23155;SDS011;11746;50.876;4.246;2023-05-07T08:03:30;7.78;;;3.45;;
23155;SDS011;11746;50.876;4.246;2023-05-07T08:05:57;6.38;;;3.38;;
23155;SDS011;11746;50.876;4.246;2023-05-07T08:08:23;7.35;;;3.63;;
23155;SDS011;11746;50.876;4.246;2023-05-07T08:10:49;8.73;;;3.78;;
23155;SDS011;11746;50.876;4.246;2023-05-07T08:13:15;10.00;;;4.10;;
23155;SDS011;11746;50.876;4.246;2023-05-07T08:15:42;8.02;;;3.97;;
23155;SDS011;11746;50.876;4.246;2023-05-07T08:18:08;5.57;;;3.10;;
23155;SDS011;11746;50.876;4.246;2023-05-07T08:20:35;6.80;;;3.80;;
23155;SDS011;11746;50.876;4.246;2023-05-07T08:23:04;6.35;;;3.70;;
23155;SDS011;11746;50.876;4.246;2023-05-07T08:25:35;5.75;;;3.13;;
23155;SDS011;11746;50.876;4.246;2023-05-07T08:28:01;7.72;;;3.25;;
23155;SDS011;11746;50.876;4.246;2023-05-07T08:30:28;5.93;;;3.47;;
23155;SDS011;11746;50.876;4.246;2023-05-07T08:32:54;9.10;;;3.30;;
23155;SDS011;11746;50.876;4.246;2023-05-07T08:35:20;6.53;;;3.22;;
23155;SDS011;11746;50.876;4.246;2023-05-07T08:37:46;5.22;;;2.92;;
23155;SDS011;11746;50.876;4.246;2023-05-07T08:40:13;5.43;;;3.13;;
23155;SDS011;11746;50.876;4.246;2023-05-07T08:42:39;5.95;;;3.15;;
23155;SDS011;11746;50.876;4.246;2023-05-07T08:45:08;6.40;;;3.13;;
23155;SDS011;11746;50.876;4.246;2023-05-07T08:47:39;6.78;;;3.05;;
23155;SDS011;11746;50.876;4.246;2023-05-07T08:50:10;7.18;;;2.92;;
23155;SDS011;11746;50.876;4.246;2023-05-07T08:52:36;7.18;;;3.05;;
23155;SDS011;11746;50.876;4.246;2023-05-07T08:55:03;4.10;;;2.50;;
23155;SDS011;11746;50.876;4.246;2023-05-07T08:57:30;4.45;;;2.85;;
23155;SDS011;11746;50.876;4.246;2023-05-07T08:59:56;5.47;;;3.10;;
23155;SDS011;11746;50.876;4.246;2023-05-07T09:02:22;7.30;;;3.22;;
23155;SDS011;11746;50.876;4.246;2023-05-07T09:04:48;5.95;;;3.55;;
23155;SDS011;11746;50.876;4.246;2023-05-07T09:07:14;6.35;;;3.33;;
23155;SDS011;11746;50.876;4.246;2023-05-07T09:09:40;4.40;;;2.90;;
23155;SDS011;11746;50.876;4.246;2023-05-07T09:12:06;6.75;;;3.38;;
23155;SDS011;11746;50.876;4.246;2023-05-07T09:14:32;9.65;;;3.47;;
23155;SDS011;11746;50.876;4.246;2023-05-07T09:16:58;7.38;;;3.22;;
23155;SDS011;11746;50.876;4.246;2023-05-07T09:19:24;6.13;;;3.30;;
23155;SDS011;11746;50.876;4.246;2023-05-07T09:21:58;6.60;;;2.83;;
23155;SDS011;11746;50.876;4.246;2023-05-07T09:24:25;5.22;;;2.10;;
23155;SDS011;11746;50.876;4.246;2023-05-07T09:26:51;5.40;;;2.67;;
23155;SDS011;11746;50.876;4.246;2023-05-07T09:29:17;4.78;;;2.30;;
23155;SDS011;11746;50.876;4.246;2023-05-07T09:31:43;4.38;;;2.72;;
23155;SDS011;11746;50.876;4.246;2023-05-07T09:34:09;7.00;;;2.95;;
23155;SDS011;11746;50.876;4.246;2023-05-07T09:36:35;3.58;;;2.08;;
23155;SDS011;11746;50.876;4.246;2023-05-07T09:39:01;4.60;;;2.00;;
23155;SDS011;11746;50.876;4.246;2023-05-07T09:41:27;4.90;;;2.65;;
23155;SDS011;11746;50.876;4.246;2023-05-07T09:43:57;6.47;;;2.67;;
23155;SDS011;11746;50.876;4.246;2023-05-07T09:46:28;6.35;;;2.60;;
23155;SDS011;11746;50.876;4.246;2023-05-07T09:48:59;5.25;;;2.25;;
23155;SDS011;11746;50.876;4.246;2023-05-07T09:51:34;6.72;;;2.33;;
23155;SDS011;11746;50.876;4.246;2023-05-07T09:54:09;5.10;;;2.42;;
23155;SDS011;11746;50.876;4.246;2023-05-07T09:56:36;5.57;;;2.40;;
23155;SDS011;11746;50.876;4.246;2023-05-07T09:59:03;10.00;;;2.85;;
23155;SDS011;11746;50.876;4.246;2023-05-07T10:01:31;4.88;;;2.42;;
23155;SDS011;11746;50.876;4.246;2023-05-07T10:03:58;6.55;;;2.03;;
23155;SDS011;11746;50.876;4.246;2023-05-07T10:06:24;4.60;;;2.28;;
23155;SDS011;11746;50.876;4.246;2023-05-07T10:08:51;5.45;;;2.13;;
23155;SDS011;11746;50.876;4.246;2023-05-07T10:11:18;5.80;;;2.42;;
23155;SDS011;11746;50.876;4.246;2023-05-07T10:13:44;5.43;;;2.75;;
23155;SDS011;11746;50.876;4.246;2023-05-07T10:16:12;5.53;;;2.75;;
23155;SDS011;11746;50.876;4.246;2023-05-07T10:18:40;6.32;;;3.20;;
23155;SDS011;11746;50.876;4.246;2023-05-07T10:21:39;5.28;;;2.85;;
23155;SDS011;11746;50.876;4.246;2023-05-07T10:24:19;5.32;;;2.67;;
23155;SDS011;11746;50.876;4.246;2023-05-07T10:26:53;7.35;;;3.10;;
23155;SDS011;11746;50.876;4.246;2023-05-07T10:34:28;5.65;;;3.42;;
23155;SDS011;11746;50.876;4.246;2023-05-07T10:36:58;4.88;;;2.90;;
23155;SDS011;11746;50.876;4.246;2023-05-07T10:39:25;5.18;;;2.80;;
23155;SDS011;11746;50.876;4.246;2023-05-07T10:41:51;7.10;;;3.08;;
23155;SDS011;11746;50.876;4.246;2023-05-07T10:44:27;6.88;;;3.30;;
23155;SDS011;11746;50.876;4.246;2023-05-07T10:47:06;7.78;;;3.45;;
23155;SDS011;11746;50.876;4.246;2023-05-07T10:49:35;6.63;;;3.10;;
23155;SDS011;11746;50.876;4.246;2023-05-07T10:52:13;4.85;;;2.80;;
23155;SDS011;11746;50.876;4.246;2023-05-07T10:54:44;6.10;;;3.45;;
23155;SDS011;11746;50.876;4.246;2023-05-07T11:05:27;4.78;;;3.20;;
23155;SDS011;11746;50.876;4.246;2023-05-07T11:07:58;4.65;;;2.63;;
23155;SDS011;11746;50.876;4.246;2023-05-07T11:13:52;5.00;;;2.70;;
23155;SDS011;11746;50.876;4.246;2023-05-07T11:18:48;3.20;;;2.55;;
23155;SDS011;11746;50.876;4.246;2023-05-07T11:21:32;4.75;;;2.72;;
23155;SDS011;11746;50.876;4.246;2023-05-07T11:23:59;4.60;;;2.80;;
23155;SDS011;11746;50.876;4.246;2023-05-07T11:26:27;4.22;;;2.53;;
23155;SDS011;11746;50.876;4.246;2023-05-07T11:28:54;4.07;;;2.03;;
23155;SDS011;11746;50.876;4.246;2023-05-07T11:31:20;3.30;;;2.30;;
23155;SDS011;11746;50.876;4.246;2023-05-07T11:33:51;3.88;;;2.85;;
23155;SDS011;11746;50.876;4.246;2023-05-07T11:36:18;4.35;;;2.75;;
23155;SDS011;11746;50.876;4.246;2023-05-07T11:38:45;6.85;;;2.80;;
23155;SDS011;11746;50.876;4.246;2023-05-07T11:41:11;4.80;;;3.20;;
23155;SDS011;11746;50.876;4.246;2023-05-07T11:43:37;4.25;;;2.78;;
23155;SDS011;11746;50.876;4.246;2023-05-07T11:46:11;4.22;;;2.70;;
23155;SDS011;11746;50.876;4.246;2023-05-07T11:48:39;4.18;;;2.50;;
23155;SDS011;11746;50.876;4.246;2023-05-07T11:51:07;5.47;;;2.90;;
23155;SDS011;11746;50.876;4.246;2023-05-07T11:53:41;5.65;;;2.67;;
23155;SDS011;11746;50.876;4.246;2023-05-07T11:56:11;4.28;;;3.00;;
23155;SDS011;11746;50.876;4.246;2023-05-07T11:58:39;6.05;;;2.65;;
23155;SDS011;11746;50.876;4.246;2023-05-07T12:01:07;4.57;;;2.72;;
23155;SDS011;11746;50.876;4.246;2023-05-07T12:03:35;5.32;;;2.28;;
23155;SDS011;11746;50.876;4.246;2023-05-07T12:06:09;3.72;;;2.75;;
23155;SDS011;11746;50.876;4.246;2023-05-07T12:08:36;4.93;;;2.42;;
23155;SDS011;11746;50.876;4.246;2023-05-07T12:11:03;3.92;;;2.17;;
23155;SDS011;11746;50.876;4.246;2023-05-07T12:13:33;3.72;;;2.17;;
23155;SDS011;11746;50.876;4.246;2023-05-07T12:15:59;2.75;;;2.10;;
23155;SDS011;11746;50.876;4.246;2023-05-07T12:18:28;5.57;;;2.50;;
23155;SDS011;11746;50.876;4.246;2023-05-07T12:20:55;6.03;;;2.92;;
23155;SDS011;11746;50.876;4.246;2023-05-07T12:23:21;4.90;;;2.60;;
23155;SDS011;11746;50.876;4.246;2023-05-07T12:25:47;4.50;;;2.80;;
23155;SDS011;11746;50.876;4.246;2023-05-07T12:28:15;4.68;;;2.80;;
23155;SDS011;11746;50.876;4.246;2023-05-07T12:30:42;2.80;;;2.53;;
23155;SDS011;11746;50.876;4.246;2023-05-07T12:33:10;4.80;;;2.90;;
23155;SDS011;11746;50.876;4.246;2023-05-07T12:35:39;4.75;;;2.70;;
23155;SDS011;11746;50.876;4.246;2023-05-07T12:38:10;5.55;;;3.50;;
23155;SDS011;11746;50.876;4.246;2023-05-07T12:43:17;4.15;;;3.53;;
23155;SDS011;11746;50.876;4.246;2023-05-07T12:45:48;4.43;;;3.55;;
23155;SDS011;11746;50.876;4.246;2023-05-07T12:48:15;7.10;;;4.07;;
23155;SDS011;11746;50.876;4.246;2023-05-07T12:50:41;6.47;;;4.80;;
23155;SDS011;11746;50.876;4.246;2023-05-07T12:53:09;5.55;;;3.90;;
23155;SDS011;11746;50.876;4.246;2023-05-07T12:55:44;5.18;;;3.80;;
23155;SDS011;11746;50.876;4.246;2023-05-07T13:03:35;5.35;;;3.92;;
23155;SDS011;11746;50.876;4.246;2023-05-07T13:06:03;6.72;;;4.45;;
23155;SDS011;11746;50.876;4.246;2023-05-07T13:08:38;6.50;;;4.40;;
23155;SDS011;11746;50.876;4.246;2023-05-07T13:11:08;6.63;;;4.15;;
23155;SDS011;11746;50.876;4.246;2023-05-07T13:13:35;5.60;;;4.50;;
23155;SDS011;11746;50.876;4.246;2023-05-07T13:16:02;5.88;;;4.88;;
23155;SDS011;11746;50.876;4.246;2023-05-07T13:18:30;7.38;;;5.30;;
23155;SDS011;11746;50.876;4.246;2023-05-07T13:20:57;5.78;;;5.18;;
23155;SDS011;11746;50.876;4.246;2023-05-07T13:23:23;6.18;;;5.55;;
23155;SDS011;11746;50.876;4.246;2023-05-07T13:25:50;6.50;;;5.50;;
23155;SDS011;11746;50.876;4.246;2023-05-07T13:28:17;6.85;;;5.47;;
23155;SDS011;11746;50.876;4.246;2023-05-07T13:30:43;8.15;;;6.70;;
23155;SDS011;11746;50.876;4.246;2023-05-07T13:33:09;8.00;;;6.20;;
23155;SDS011;11746;50.876;4.246;2023-05-07T13:35:35;8.23;;;7.28;;
23155;SDS011;11746;50.876;4.246;2023-05-07T13:38:01;8.40;;;7.53;;
23155;SDS011;11746;50.876;4.246;2023-05-07T13:40:27;9.90;;;8.45;;
23155;SDS011;11746;50.876;4.246;2023-05-07T13:42:53;10.95;;;8.90;;
23155;SDS011;11746;50.876;4.246;2023-05-07T13:45:23;10.43;;;9.32;;
23155;SDS011;11746;50.876;4.246;2023-05-07T13:47:51;11.15;;;9.35;;
23155;SDS011;11746;50.876;4.246;2023-05-07T13:50:17;10.02;;;9.02;;
23155;SDS011;11746;50.876;4.246;2023-05-07T13:52:45;10.18;;;9.13;;
23155;SDS011;11746;50.876;4.246;2023-05-07T13:55:15;9.90;;;8.75;;
23155;SDS011;11746;50.876;4.246;2023-05-07T13:57:45;10.20;;;9.00;;
23155;SDS011;11746;50.876;4.246;2023-05-07T14:00:11;10.40;;;8.68;;
23155;SDS011;11746;50.876;4.246;2023-05-07T14:02:41;10.60;;;9.20;;
23155;SDS011;11746;50.876;4.246;2023-05-07T14:05:07;11.25;;;9.88;;
23155;SDS011;11746;50.876;4.246;2023-05-07T14:07:34;12.05;;;9.63;;
23155;SDS011;11746;50.876;4.246;2023-05-07T14:09:59;10.85;;;9.68;;
23155;SDS011;11746;50.876;4.246;2023-05-07T14:12:25;11.40;;;10.20;;
23155;SDS011;11746;50.876;4.246;2023-05-07T14:14:53;14.75;;;10.90;;
23155;SDS011;11746;50.876;4.246;2023-05-07T14:17:19;12.98;;;10.93;;
23155;SDS011;11746;50.876;4.246;2023-05-07T14:19:45;11.90;;;10.63;;
23155;SDS011;11746;50.876;4.246;2023-05-07T14:22:13;11.95;;;10.63;;
23155;SDS011;11746;50.876;4.246;2023-05-07T14:24:40;12.43;;;11.02;;
23155;SDS011;11746;50.876;4.246;2023-05-07T14:27:06;13.60;;;10.95;;
23155;SDS011;11746;50.876;4.246;2023-05-07T14:29:31;14.18;;;11.38;;
23155;SDS011;11746;50.876;4.246;2023-05-07T14:31:57;10.68;;;8.90;;
23155;SDS011;11746;50.876;4.246;2023-05-07T14:34:23;9.57;;;7.97;;
23155;SDS011;11746;50.876;4.246;2023-05-07T14:36:49;10.23;;;8.20;;
23155;SDS011;11746;50.876;4.246;2023-05-07T14:39:15;7.75;;;6.63;;
23155;SDS011;11746;50.876;4.246;2023-05-07T14:41:41;7.13;;;6.07;;
23155;SDS011;11746;50.876;4.246;2023-05-07T14:44:07;7.90;;;6.50;;
23155;SDS011;11746;50.876;4.246;2023-05-07T14:46:33;6.97;;;6.18;;
23155;SDS011;11746;50.876;4.246;2023-05-07T14:48:59;5.30;;;4.40;;
23155;SDS011;11746;50.876;4.246;2023-05-07T14:51:25;6.90;;;5.40;;
23155;SDS011;11746;50.876;4.246;2023-05-07T14:53:53;6.40;;;4.88;;
23155;SDS011;11746;50.876;4.246;2023-05-07T14:56:19;8.40;;;4.95;;
23155;SDS011;11746;50.876;4.246;2023-05-07T14:58:46;5.72;;;4.68;;
23155;SDS011;11746;50.876;4.246;2023-05-07T15:01:13;5.88;;;4.72;;
23155;SDS011;11746;50.876;4.246;2023-05-07T15:03:39;8.45;;;5.70;;
23155;SDS011;11746;50.876;4.246;2023-05-07T15:06:05;7.32;;;5.45;;
23155;SDS011;11746;50.876;4.246;2023-05-07T15:08:31;6.65;;;5.00;;